Time;durP1;ratioP1;P1;durP2;ratioP2;P2;SDS_P1;SDS_P2;PMS_P1;PMS_P2;Temp;Humidity;BMP_temperature;BMP_pressure;BME280_temperature;BME280_humidity;BME280_pressure;Samples;Min_cycle;Max_cycle;Signal;HPM_P1;HPM_P2
2023/07/13 00:00:15;;;;;;;3.92;1.75;;;;;;;14.71;100.00;101023.06;4946138;28;20187;-48
2023/07/13 00:02:41;;;;;;;7.50;2.10;;;;;;;14.60;100.00;101024.50;4954098;28;20267;-47
2023/07/13 00:05:07;;;;;;;7.60;2.28;;;;;;;14.56;100.00;101028.34;4946987;28;20207;-46
2023/07/13 00:07:34;;;;;;;9.60;2.60;;;;;;;14.66;100.00;101019.75;4945225;28;20186;-47
2023/07/13 00:09:59;;;;;;;8.73;2.22;;;;;;;14.71;100.00;101023.94;4957109;28;20202;-47
2023/07/13 00:12:34;;;;;;;7.50;2.00;;;;;;;14.68;100.00;101024.13;4944964;28;20442;-47
2023/07/13 00:15:02;;;;;;;8.80;2.42;;;;;;;14.54;100.00;101026.59;4952259;28;20210;-48
2023/07/13 00:17:28;;;;;;;5.10;1.90;;;;;;;14.57;100.00;101037.28;4940354;28;20186;-47
2023/07/13 00:19:55;;;;;;;7.20;2.50;;;;;;;14.56;100.00;101036.41;4950021;28;20186;-48
2023/07/13 00:22:21;;;;;;;6.88;2.17;;;;;;;14.56;100.00;101027.44;4953926;28;20234;-49
2023/07/13 00:24:47;;;;;;;4.38;2.22;;;;;;;14.56;100.00;101025.63;4950132;28;20249;-48
2023/07/13 00:27:14;;;;;;;9.48;2.40;;;;;;;14.48;100.00;101021.56;4949459;28;20202;-49
2023/07/13 00:29:39;;;;;;;7.40;2.25;;;;;;;14.47;100.00;101025.19;4954414;28;20191;-47
2023/07/13 00:32:06;;;;;;;9.65;2.67;;;;;;;14.38;100.00;101022.00;4949560;28;20174;-46
2023/07/13 00:34:32;;;;;;;8.80;2.58;;;;;;;14.39;100.00;101022.91;4949945;28;20277;-48
2023/07/13 00:36:58;;;;;;;6.10;2.50;;;;;;;14.38;100.00;101029.22;4939305;28;20354;-48
2023/07/13 00:39:24;;;;;;;8.85;2.85;;;;;;;14.37;100.00;101024.81;4943564;28;20274;-46
2023/07/13 00:41:50;;;;;;;6.55;2.40;;;;;;;14.34;100.00;101024.94;4946576;28;20244;-46
2023/07/13 00:44:17;;;;;;;8.35;2.30;;;;;;;14.40;100.00;101020.09;4954508;28;20215;-49
2023/07/13 00:46:42;;;;;;;8.50;2.90;;;;;;;14.50;100.00;101025.06;4939189;28;20659;-49
2023/07/13 00:49:12;;;;;;;7.60;2.67;;;;;;;14.47;100.00;101017.97;4945420;28;20276;-48
2023/07/13 00:51:45;;;;;;;5.40;2.17;;;;;;;14.52;100.00;101023.13;4959263;28;20248;-49
2023/07/13 00:54:14;;;;;;;6.93;2.28;;;;;;;14.54;100.00;101022.13;4938273;28;20650;-50
2023/07/13 00:56:43;;;;;;;5.72;2.50;;;;;;;14.55;100.00;101023.88;4952623;28;20186;-48
2023/07/13 00:59:11;;;;;;;7.90;2.53;;;;;;;14.59;100.00;101020.06;4948331;28;20182;-48
2023/07/13 01:01:36;;;;;;;8.30;2.75;;;;;;;14.70;100.00;101019.50;4952773;28;20205;-47
2023/07/13 01:04:03;;;;;;;5.63;2.25;;;;;;;14.67;100.00;101019.69;4939121;28;20188;-49
2023/07/13 01:06:29;;;;;;;9.20;2.63;;;;;;;14.54;100.00;101022.13;4946777;28;20288;-47
2023/07/13 01:08:57;;;;;;;9.48;2.72;;;;;;;14.54;100.00;101015.81;4943242;28;20579;-46
2023/07/13 01:11:23;;;;;;;5.75;2.38;;;;;;;14.50;100.00;101014.25;4948518;28;20314;-46
2023/07/13 01:13:49;;;;;;;4.15;2.38;;;;;;;14.50;100.00;101019.66;4941151;28;20265;-48
2023/07/13 01:16:21;;;;;;;6.15;2.63;;;;;;;14.39;100.00;101006.72;4945009;28;20217;-48
2023/07/13 01:18:47;;;;;;;5.32;2.08;;;;;;;14.52;100.00;101020.41;4942241;28;20194;-48
2023/07/13 01:21:12;;;;;;;7.22;2.45;;;;;;;14.47;100.00;101022.50;4947804;28;20181;-47
2023/07/13 01:23:39;;;;;;;8.77;2.85;;;;;;;14.44;100.00;101018.13;4948596;28;20252;-48
2023/07/13 01:26:05;;;;;;;4.78;2.58;;;;;;;14.35;100.00;101019.47;4945493;28;20520;-47
2023/07/13 01:28:30;;;;;;;9.88;2.58;;;;;;;14.33;100.00;101025.91;4950020;28;20672;-47
2023/07/13 01:30:58;;;;;;;6.80;2.63;;;;;;;14.31;100.00;101019.72;4945400;28;20681;-47
2023/07/13 01:33:24;;;;;;;10.68;2.55;;;;;;;14.32;100.00;101016.06;4942178;28;20184;-46
2023/07/13 01:35:50;;;;;;;11.65;3.00;;;;;;;14.27;100.00;101020.81;4946506;28;20689;-49
2023/07/13 01:38:18;;;;;;;8.82;3.17;;;;;;;14.25;100.00;101031.66;4949008;28;20204;-47
2023/07/13 01:40:44;;;;;;;6.07;2.47;;;;;;;14.25;100.00;101026.28;4969075;28;20701;-48
2023/07/13 01:43:10;;;;;;;6.88;3.03;;;;;;;14.21;100.00;101017.50;4949076;28;20287;-46
2023/07/13 01:45:36;;;;;;;7.13;2.55;;;;;;;14.25;100.00;101020.03;4954610;28;20577;-46
2023/07/13 01:48:02;;;;;;;7.70;2.55;;;;;;;14.21;100.00;101011.22;4957297;28;20303;-47
2023/07/13 01:50:27;;;;;;;7.15;2.60;;;;;;;14.22;100.00;101018.34;4941216;28;20202;-46
2023/07/13 01:52:53;;;;;;;7.43;2.75;;;;;;;14.20;100.00;101021.13;4937776;28;20191;-48
2023/07/13 01:55:20;;;;;;;6.15;2.13;;;;;;;14.27;100.00;101018.13;4941725;28;20692;-46
2023/07/13 01:57:46;;;;;;;7.10;2.83;;;;;;;14.24;100.00;101012.91;4950034;28;20321;-48
2023/07/13 02:00:13;;;;;;;10.52;2.65;;;;;;;14.20;100.00;101007.66;4952623;28;20421;-48
2023/07/13 02:02:42;;;;;;;5.53;2.40;;;;;;;14.21;100.00;101009.41;4939386;28;20206;-48
2023/07/13 02:05:09;;;;;;;5.65;2.53;;;;;;;14.17;100.00;101009.66;4949703;28;20277;-47
2023/07/13 02:07:34;;;;;;;4.35;2.35;;;;;;;14.17;100.00;101017.72;4953102;28;20663;-49
2023/07/13 02:10:00;;;;;;;7.65;2.67;;;;;;;14.09;100.00;101019.94;4940578;28;20213;-47
2023/07/13 02:12:25;;;;;;;6.68;2.83;;;;;;;14.09;100.00;101018.09;4944868;28;20646;-46
2023/07/13 02:14:51;;;;;;;6.75;2.97;;;;;;;14.09;100.00;101009.16;4947488;28;20325;-48
2023/07/13 02:17:16;;;;;;;7.97;2.53;;;;;;;14.10;100.00;101019.88;4944284;28;20183;-49
2023/07/13 02:19:42;;;;;;;7.00;2.22;;;;;;;14.10;100.00;101006.38;4947708;28;20186;-46
2023/07/13 02:22:08;;;;;;;7.25;2.50;;;;;;;14.20;100.00;101012.16;4942214;28;20209;-47
2023/07/13 02:24:33;;;;;;;5.95;2.20;;;;;;;14.18;100.00;101008.69;4948768;28;20225;-48
2023/07/13 02:26:59;;;;;;;8.32;2.78;;;;;;;14.14;100.00;101013.34;4959411;28;20199;-46
2023/07/13 02:29:24;;;;;;;7.63;2.50;;;;;;;14.09;100.00;101003.75;4944638;28;21103;-46
2023/07/13 02:31:50;;;;;;;6.97;2.30;;;;;;;14.13;100.00;101006.22;4954262;28;20748;-48
2023/07/13 02:34:15;;;;;;;4.38;2.10;;;;;;;14.12;100.00;101006.28;4959485;28;20557;-46
2023/07/13 02:36:41;;;;;;;5.97;2.10;;;;;;;14.10;100.00;101008.19;4953731;28;20270;-48
2023/07/13 02:39:07;;;;;;;5.53;1.90;;;;;;;14.08;100.00;101005.59;4943247;28;20285;-46
2023/07/13 02:41:35;;;;;;;5.88;2.10;;;;;;;14.12;100.00;101003.59;4948068;28;20597;-48
2023/07/13 02:44:04;;;;;;;6.70;1.70;;;;;;;14.15;100.00;101000.75;4958424;28;20664;-46
2023/07/13 02:46:31;;;;;;;4.45;1.90;;;;;;;14.15;100.00;100987.28;4953384;28;20214;-46
2023/07/13 02:48:56;;;;;;;4.45;1.98;;;;;;;14.23;100.00;100995.84;4947851;28;20556;-47
2023/07/13 02:51:22;;;;;;;4.82;2.13;;;;;;;14.20;100.00;100991.47;4953810;28;20321;-47
2023/07/13 02:53:47;;;;;;;3.47;1.90;;;;;;;14.18;100.00;100979.03;4957569;28;20266;-48
2023/07/13 02:56:13;;;;;;;4.15;1.92;;;;;;;14.20;100.00;100977.13;4953949;28;20209;-46
2023/07/13 02:58:38;;;;;;;8.00;2.05;;;;;;;14.21;100.00;100978.88;4948974;28;20191;-47
2023/07/13 03:01:11;;;;;;;3.65;2.10;;;;;;;14.20;100.00;100980.69;4951005;28;20609;-46
2023/07/13 03:03:37;;;;;;;4.07;2.10;;;;;;;14.22;100.00;100980.63;4942174;28;20617;-46
2023/07/13 03:06:05;;;;;;;6.68;2.60;;;;;;;14.19;100.00;100976.28;4946101;28;20198;-45
2023/07/13 03:08:37;;;;;;;7.25;2.40;;;;;;;14.16;100.00;100986.31;4942233;28;20183;-46
2023/07/13 03:11:06;;;;;;;3.50;2.20;;;;;;;14.20;100.00;100980.69;4957239;28;20219;-46
2023/07/13 03:13:34;;;;;;;6.05;2.53;;;;;;;14.14;100.00;100974.75;4956247;28;20351;-46
2023/07/13 03:16:01;;;;;;;4.28;2.47;;;;;;;14.15;100.00;100973.81;4940992;28;20227;-46
2023/07/13 03:18:27;;;;;;;7.07;3.13;;;;;;;14.16;100.00;100976.41;4945110;28;20182;-48
2023/07/13 03:20:53;;;;;;;6.65;3.25;;;;;;;14.17;100.00;100982.69;4970243;28;20187;-48
2023/07/13 03:23:20;;;;;;;7.93;3.55;;;;;;;14.14;100.00;100985.53;4952360;28;20192;-47
2023/07/13 03:25:46;;;;;;;5.80;3.38;;;;;;;14.16;100.00;100987.19;4955247;28;20632;-48
2023/07/13 03:28:12;;;;;;;7.90;3.42;;;;;;;14.16;100.00;100983.63;4947831;28;20232;-48
2023/07/13 03:30:38;;;;;;;6.65;3.70;;;;;;;14.17;100.00;100986.25;4953744;28;20206;-47
2023/07/13 03:33:04;;;;;;;5.72;3.63;;;;;;;14.23;100.00;100985.06;4944125;28;20178;-47
2023/07/13 03:35:30;;;;;;;9.95;4.05;;;;;;;14.20;100.00;100982.53;4946085;28;20281;-47
2023/07/13 03:37:56;;;;;;;6.10;3.65;;;;;;;14.20;100.00;100985.22;4949397;28;20282;-48
2023/07/13 03:40:22;;;;;;;6.93;3.95;;;;;;;14.25;100.00;100991.25;4952491;28;20603;-48
2023/07/13 03:42:48;;;;;;;5.25;4.00;;;;;;;14.27;100.00;100993.88;4954786;28;20265;-48
2023/07/13 03:45:16;;;;;;;9.82;4.30;;;;;;;14.29;100.00;100990.13;4957096;28;20210;-48
2023/07/13 03:47:41;;;;;;;5.78;3.88;;;;;;;14.33;100.00;100988.16;4939543;28;20202;-48
2023/07/13 03:50:08;;;;;;;7.72;3.92;;;;;;;14.31;100.00;100984.69;4957958;28;20690;-48
2023/07/13 03:52:34;;;;;;;9.07;3.72;;;;;;;14.32;100.00;100992.69;4950686;28;20179;-47
2023/07/13 03:55:00;;;;;;;6.53;3.75;;;;;;;14.38;100.00;101003.13;4938464;28;20213;-47
2023/07/13 03:57:26;;;;;;;5.82;3.50;;;;;;;14.44;100.00;101001.97;4945952;28;20566;-48
2023/07/13 03:59:51;;;;;;;6.72;3.88;;;;;;;14.38;100.00;100997.75;4951529;28;20177;-49
2023/07/13 04:02:17;;;;;;;6.38;3.83;;;;;;;14.39;100.00;101009.44;4941417;28;20642;-47
2023/07/13 04:04:43;;;;;;;4.70;4.13;;;;;;;14.42;100.00;101003.88;4954401;28;20208;-46
2023/07/13 04:07:09;;;;;;;6.80;3.85;;;;;;;14.51;100.00;101005.22;4958794;28;20497;-47
2023/07/13 04:09:38;;;;;;;10.18;3.83;;;;;;;14.56;100.00;101016.66;4954494;28;20179;-47
2023/07/13 04:12:04;;;;;;;5.22;3.83;;;;;;;14.59;100.00;101008.44;4952084;28;20208;-47
2023/07/13 04:14:29;;;;;;;6.70;4.15;;;;;;;14.60;100.00;101015.53;4942685;28;20233;-48
2023/07/13 04:16:55;;;;;;;5.78;4.18;;;;;;;14.72;100.00;101014.06;4948959;28;20182;-46
2023/07/13 04:19:21;;;;;;;8.25;4.80;;;;;;;14.67;100.00;101019.69;4948867;28;20591;-47
2023/07/13 04:21:47;;;;;;;8.90;4.53;;;;;;;14.63;100.00;101013.56;4939765;28;20206;-48
2023/07/13 04:24:12;;;;;;;4.88;4.15;;;;;;;14.68;100.00;101016.03;4943099;28;20186;-48
2023/07/13 04:26:39;;;;;;;7.85;3.97;;;;;;;14.70;100.00;101018.66;4949820;28;20255;-48
2023/07/13 04:29:06;;;;;;;6.20;4.30;;;;;;;14.74;100.00;101017.53;4951659;28;20193;-47
2023/07/13 04:31:32;;;;;;;6.25;4.00;;;;;;;14.73;100.00;101018.47;4940824;28;20195;-48
2023/07/13 04:33:57;;;;;;;7.13;3.83;;;;;;;14.72;100.00;101011.34;4948247;28;20230;-46
2023/07/13 04:36:26;;;;;;;8.52;4.28;;;;;;;14.74;100.00;101013.00;4954487;28;20233;-47
2023/07/13 04:38:53;;;;;;;5.30;3.70;;;;;;;14.77;100.00;101009.28;4945244;28;20198;-48
2023/07/13 04:41:20;;;;;;;6.35;4.45;;;;;;;14.82;100.00;101018.88;4943253;28;20227;-47
2023/07/13 04:43:46;;;;;;;6.63;3.70;;;;;;;14.90;100.00;101014.91;4950763;28;20190;-48
2023/07/13 04:46:13;;;;;;;7.50;3.78;;;;;;;14.91;100.00;101025.63;4951524;28;20677;-47
2023/07/13 04:48:39;;;;;;;10.05;4.18;;;;;;;14.90;100.00;101012.19;4943474;28;20190;-48
2023/07/13 04:51:05;;;;;;;8.43;4.03;;;;;;;14.87;100.00;101024.03;4939601;28;20199;-47
2023/07/13 04:53:32;;;;;;;8.98;3.88;;;;;;;14.94;100.00;101025.44;4946724;28;20596;-47
2023/07/13 04:55:58;;;;;;;7.22;3.65;;;;;;;14.96;100.00;101025.38;4951207;28;20197;-48
2023/07/13 04:58:24;;;;;;;8.55;4.35;;;;;;;14.97;100.00;101021.69;4946246;28;20563;-47
2023/07/13 05:00:49;;;;;;;7.45;4.20;;;;;;;15.13;100.00;101022.63;4948377;28;20640;-48
2023/07/13 05:03:15;;;;;;;8.05;3.70;;;;;;;15.13;100.00;101028.03;4955122;28;20190;-48
2023/07/13 05:05:41;;;;;;;8.70;3.53;;;;;;;15.23;100.00;101036.50;4955051;28;20191;-48
2023/07/13 05:08:07;;;;;;;7.55;3.70;;;;;;;15.31;100.00;101033.38;4954230;28;20183;-47
2023/07/13 05:10:33;;;;;;;6.63;3.28;;;;;;;15.44;100.00;101031.75;4942635;28;20210;-47
2023/07/13 05:12:58;;;;;;;7.28;3.50;;;;;;;15.59;100.00;101038.09;4955477;28;20191;-47
2023/07/13 05:15:25;;;;;;;6.63;4.13;;;;;;;15.70;100.00;101045.59;4953958;28;20190;-48
2023/07/13 05:17:51;;;;;;;5.18;3.00;;;;;;;15.75;100.00;101048.97;4946212;28;20182;-49
2023/07/13 05:20:17;;;;;;;4.68;3.38;;;;;;;15.80;100.00;101036.94;4953946;28;20178;-48
2023/07/13 05:22:43;;;;;;;5.55;3.42;;;;;;;15.82;100.00;101045.81;4948002;28;20189;-47
2023/07/13 05:25:09;;;;;;;10.77;3.17;;;;;;;15.92;100.00;101050.69;4947274;28;20202;-48
2023/07/13 05:27:35;;;;;;;8.00;3.75;;;;;;;15.90;100.00;101042.69;4944359;28;20602;-48
2023/07/13 05:30:02;;;;;;;6.45;3.65;;;;;;;16.00;100.00;101043.03;4942233;28;20200;-47
2023/07/13 05:32:27;;;;;;;7.78;3.05;;;;;;;16.02;100.00;101046.50;4948977;28;20277;-47
2023/07/13 05:34:53;;;;;;;7.43;3.10;;;;;;;16.12;100.00;101046.88;4946602;28;20293;-47
2023/07/13 05:37:18;;;;;;;5.03;3.47;;;;;;;16.11;100.00;101048.69;4937913;28;20209;-47
2023/07/13 05:39:44;;;;;;;8.85;3.05;;;;;;;16.05;100.00;101062.56;4946285;28;20236;-48
2023/07/13 05:42:10;;;;;;;7.95;2.80;;;;;;;16.13;100.00;101056.72;4955735;28;20186;-46
2023/07/13 05:44:35;;;;;;;8.60;3.50;;;;;;;16.08;100.00;101062.38;4945091;28;20587;-47
2023/07/13 05:47:01;;;;;;;10.30;3.42;;;;;;;15.99;100.00;101071.88;4939653;28;20175;-47
2023/07/13 05:49:27;;;;;;;12.15;3.75;;;;;;;16.16;100.00;101062.81;4947328;28;20242;-46
2023/07/13 05:51:52;;;;;;;5.97;3.10;;;;;;;16.11;100.00;101059.50;4950262;28;20203;-47
2023/07/13 05:54:18;;;;;;;7.65;3.25;;;;;;;16.06;100.00;101058.91;4943128;28;20528;-46
2023/07/13 05:56:44;;;;;;;9.30;3.33;;;;;;;16.17;100.00;101059.16;4946358;28;20274;-48
2023/07/13 05:59:09;;;;;;;7.70;3.42;;;;;;;16.06;100.00;101061.59;4957043;28;20701;-47
2023/07/13 06:01:35;;;;;;;11.70;3.63;;;;;;;16.10;100.00;101065.00;4953249;28;20269;-48
2023/07/13 06:04:00;;;;;;;13.65;4.07;;;;;;;16.08;100.00;101069.63;4947828;28;20230;-50
2023/07/13 06:06:26;;;;;;;11.35;3.47;;;;;;;16.24;100.00;101060.53;4941938;28;20282;-48
2023/07/13 06:08:52;;;;;;;8.50;2.85;;;;;;;16.30;100.00;101050.31;4950876;28;20574;-49
2023/07/13 06:11:21;;;;;;;6.18;2.97;;;;;;;16.38;100.00;101050.75;4956049;28;20608;-46
2023/07/13 06:13:46;;;;;;;12.65;4.13;;;;;;;16.47;100.00;101047.50;4951174;28;20641;-47
2023/07/13 06:16:13;;;;;;;10.52;4.28;;;;;;;16.43;100.00;101043.22;4957348;28;20201;-47
2023/07/13 06:18:39;;;;;;;11.50;3.75;;;;;;;16.45;100.00;101039.47;4960493;28;20238;-48
2023/07/13 06:21:11;;;;;;;6.50;3.42;;;;;;;16.46;100.00;101040.34;4950829;28;20169;-46
2023/07/13 06:23:36;;;;;;;8.88;3.50;;;;;;;16.46;100.00;101041.22;4942966;28;20259;-47
2023/07/13 06:26:02;;;;;;;9.38;3.28;;;;;;;16.62;100.00;101037.59;4948345;28;20218;-47
2023/07/13 06:28:28;;;;;;;12.68;3.80;;;;;;;16.68;100.00;101045.31;4958540;28;20635;-47
2023/07/13 06:30:54;;;;;;;12.52;3.88;;;;;;;16.63;100.00;101044.75;4953191;28;20566;-47
2023/07/13 06:33:19;;;;;;;11.52;4.10;;;;;;;16.66;100.00;101050.84;4948866;28;20433;-49
2023/07/13 06:35:45;;;;;;;8.23;3.50;;;;;;;16.68;100.00;101059.75;4940599;28;20195;-47
2023/07/13 06:38:10;;;;;;;12.43;3.42;;;;;;;16.75;100.00;101062.94;4950565;28;20194;-47
2023/07/13 06:40:36;;;;;;;7.95;3.28;;;;;;;16.84;100.00;101057.00;4960944;28;20286;-47
2023/07/13 06:43:01;;;;;;;10.02;3.75;;;;;;;16.78;100.00;101062.75;4940453;28;20174;-49
2023/07/13 06:45:27;;;;;;;10.93;3.20;;;;;;;16.78;100.00;101072.72;4945499;28;20199;-48
2023/07/13 06:47:52;;;;;;;11.82;3.50;;;;;;;16.80;100.00;101068.97;4954847;28;20296;-47
2023/07/13 06:50:18;;;;;;;10.55;3.40;;;;;;;16.74;100.00;101080.13;4954301;28;20584;-46
2023/07/13 06:52:43;;;;;;;9.13;3.28;;;;;;;16.99;100.00;101074.16;4940827;28;20210;-44
2023/07/13 06:55:09;;;;;;;12.30;3.15;;;;;;;17.11;100.00;101080.63;4947773;28;20474;-45
2023/07/13 06:57:34;;;;;;;9.32;3.70;;;;;;;17.23;100.00;101085.31;4955971;28;20186;-45
2023/07/13 07:00:00;;;;;;;10.48;3.45;;;;;;;17.61;100.00;101068.47;4951489;28;20623;-48
2023/07/13 07:02:26;;;;;;;8.88;2.90;;;;;;;18.14;100.00;101068.69;4947833;28;20245;-48
2023/07/13 07:04:51;;;;;;;9.50;3.22;;;;;;;18.10;100.00;101059.91;4950621;28;20206;-47
2023/07/13 07:07:17;;;;;;;10.80;2.97;;;;;;;17.65;100.00;101063.72;4949151;28;20210;-45
2023/07/13 07:09:42;;;;;;;10.77;3.38;;;;;;;17.72;100.00;101062.38;4943980;28;20202;-45
2023/07/13 07:12:08;;;;;;;9.55;2.88;;;;;;;18.56;99.99;101053.19;4943990;28;20500;-46
2023/07/13 07:14:34;;;;;;;12.77;2.88;;;;;;;18.52;97.70;101054.41;4959099;28;20555;-47
2023/07/13 07:17:00;;;;;;;13.35;3.28;;;;;;;18.50;96.80;101054.50;4948002;28;20381;-47
2023/07/13 07:19:26;;;;;;;6.05;2.53;;;;;;;18.61;95.00;101048.34;4947291;28;20230;-46
2023/07/13 07:21:51;;;;;;;10.07;2.80;;;;;;;18.55;95.19;101048.75;4947394;28;20802;-47
2023/07/13 07:24:17;;;;;;;9.82;2.58;;;;;;;19.26;93.14;101042.03;4953203;28;20177;-47
2023/07/13 07:26:42;;;;;;;7.88;2.40;;;;;;;18.66;92.25;101042.59;4952654;28;20209;-48
2023/07/13 07:29:08;;;;;;;11.48;2.80;;;;;;;19.08;91.75;101046.91;4952366;28;20219;-46
2023/07/13 07:31:34;;;;;;;12.90;2.88;;;;;;;19.21;90.05;101041.47;4954053;28;20565;-48
2023/07/13 07:33:59;;;;;;;9.82;2.83;;;;;;;19.48;88.24;101045.91;4949655;28;20183;-47
2023/07/13 07:36:25;;;;;;;4.78;2.35;;;;;;;19.26;88.10;101042.03;4953267;28;20208;-47
2023/07/13 07:38:51;;;;;;;9.73;2.60;;;;;;;19.53;88.38;101051.91;4945548;28;20190;-48
2023/07/13 07:41:16;;;;;;;9.07;2.30;;;;;;;18.83;87.37;101041.47;4948405;28;20737;-46
2023/07/13 07:43:42;;;;;;;9.52;2.40;;;;;;;19.33;87.54;101048.75;4955638;28;20556;-47
2023/07/13 07:46:07;;;;;;;8.07;2.60;;;;;;;19.20;86.41;101044.28;4949107;28;20199;-46
2023/07/13 07:48:33;;;;;;;8.27;2.10;;;;;;;19.29;86.29;101043.66;4952232;28;20179;-48
2023/07/13 07:50:58;;;;;;;8.70;2.38;;;;;;;19.24;85.27;101041.28;4941852;28;20235;-47
2023/07/13 07:53:24;;;;;;;6.55;2.00;;;;;;;19.35;83.76;101030.50;4949446;28;20260;-45
2023/07/13 07:55:51;;;;;;;7.55;2.40;;;;;;;19.64;84.06;101027.50;4957431;28;20209;-48
2023/07/13 07:58:16;;;;;;;8.80;2.28;;;;;;;20.31;82.58;101018.94;4938730;28;20191;-48
2023/07/13 08:00:42;;;;;;;9.85;2.30;;;;;;;20.70;80.58;101019.56;4946485;28;20662;-47
2023/07/13 08:03:07;;;;;;;7.27;2.17;;;;;;;20.93;79.66;101014.19;4947276;28;20562;-46
2023/07/13 08:05:35;;;;;;;7.30;2.25;;;;;;;20.60;77.60;101009.50;4949941;28;20301;-46
2023/07/13 08:08:01;;;;;;;5.22;1.98;;;;;;;20.86;76.86;100999.31;4941423;28;20273;-45
2023/07/13 08:10:26;;;;;;;7.45;1.98;;;;;;;20.83;77.33;101002.28;4949277;28;20347;-46
2023/07/13 08:12:52;;;;;;;6.10;1.85;;;;;;;20.44;77.67;101015.25;4948665;28;20183;-47
2023/07/13 08:15:20;;;;;;;5.93;2.15;;;;;;;19.87;80.18;101027.69;4940948;28;20195;-47
2023/07/13 08:17:48;;;;;;;9.18;2.67;;;;;;;18.93;82.57;101048.88;4940089;28;20187;-46
2023/07/13 08:20:15;;;;;;;13.18;2.78;;;;;;;18.68;86.21;101049.66;4952111;28;20289;-45
2023/07/13 08:22:40;;;;;;;9.88;3.10;;;;;;;18.14;90.26;101065.97;4948295;28;20748;-48
2023/07/13 08:25:06;;;;;;;7.78;2.53;;;;;;;17.71;95.25;101072.34;4946080;28;20278;-47
2023/07/13 08:27:33;;;;;;;8.77;2.85;;;;;;;17.55;100.00;101065.28;4950847;28;20211;-46
2023/07/13 08:29:59;;;;;;;10.00;2.50;;;;;;;17.38;100.00;101069.03;4950113;28;20297;-48
2023/07/13 08:32:25;;;;;;;10.52;2.60;;;;;;;17.01;100.00;101077.63;4941937;28;20181;-47
2023/07/13 08:34:51;;;;;;;9.45;2.72;;;;;;;17.46;100.00;101085.69;4940029;28;20205;-46
2023/07/13 08:37:17;;;;;;;5.88;2.30;;;;;;;17.41;100.00;101077.00;4943290;28;20233;-46
2023/07/13 08:39:43;;;;;;;9.85;2.90;;;;;;;17.55;100.00;101079.69;4949689;28;20194;-47
2023/07/13 08:42:21;;;;;;;5.95;2.00;;;;;;;17.43;100.00;101075.06;4952058;28;20188;-46
2023/07/13 08:44:53;;;;;;;6.50;2.38;;;;;;;17.02;100.00;101068.53;4944091;28;20246;-46
2023/07/13 08:47:22;;;;;;;7.30;2.58;;;;;;;17.18;100.00;101083.84;4949690;28;20234;-49
2023/07/13 08:49:48;;;;;;;10.93;2.55;;;;;;;17.15;100.00;101093.03;4947683;28;20698;-47
2023/07/13 08:52:36;;;;;;;12.43;2.85;;;;;;;17.50;100.00;101104.38;4950596;28;20293;-47
2023/07/13 08:55:28;;;;;;;10.98;2.85;;;;;;;17.00;100.00;101094.84;4941432;28;20201;-46
2023/07/13 08:58:11;;;;;;;14.27;3.70;;;;;;;17.12;100.00;101108.56;4943316;28;20183;-46
2023/07/13 09:00:55;;;;;;;17.17;3.53;;;;;;;16.93;100.00;101133.22;4945345;28;20194;-46
2023/07/13 09:03:29;;;;;;;8.18;2.90;;;;;;;16.02;100.00;101135.69;4952371;28;20183;-47
2023/07/13 09:06:02;;;;;;;13.65;2.72;;;;;;;15.17;100.00;101140.25;4938388;28;20296;-47
2023/07/13 09:08:36;;;;;;;18.77;3.05;;;;;;;14.98;100.00;101123.28;4946603;28;20178;-47
2023/07/13 09:11:17;;;;;;;7.95;2.42;;;;;;;14.93;100.00;101122.63;4947987;28;20207;-47
2023/07/13 09:14:17;;;;;;;7.20;1.80;;;;;;;14.93;100.00;101110.00;4937943;28;20216;-48
2023/07/13 09:16:44;;;;;;;9.30;2.13;;;;;;;14.90;100.00;101107.50;4943100;28;20182;-47
2023/07/13 09:19:19;;;;;;;6.65;2.28;;;;;;;14.86;100.00;101111.28;4950695;28;20265;-45
2023/07/13 09:21:45;;;;;;;6.30;1.98;;;;;;;14.95;100.00;101107.25;4942473;28;20182;-48
2023/07/13 09:24:36;;;;;;;4.05;2.08;;;;;;;15.17;100.00;101115.09;4935746;28;20202;-47
2023/07/13 09:27:12;;;;;;;4.10;1.88;;;;;;;15.93;100.00;101123.59;4947180;28;20692;-45
2023/07/13 09:29:44;;;;;;;3.55;1.85;;;;;;;16.26;100.00;101120.78;4945876;28;20228;-47
2023/07/13 09:32:14;;;;;;;6.03;1.70;;;;;;;16.43;100.00;101111.72;4944801;28;20206;-47
2023/07/13 09:34:40;;;;;;;5.55;1.80;;;;;;;16.99;100.00;101109.34;4950341;28;20202;-49
2023/07/13 09:37:05;;;;;;;4.88;2.15;;;;;;;17.61;100.00;101094.69;4950546;28;20211;-48
2023/07/13 09:39:39;;;;;;;5.55;1.67;;;;;;;18.44;100.00;101084.75;4943450;28;20195;-47
2023/07/13 09:42:21;;;;;;;4.65;1.70;;;;;;;19.02;100.00;101088.09;4940932;28;20163;-48
2023/07/13 09:44:54;;;;;;;5.97;2.10;;;;;;;19.01;100.00;101083.63;4941463;28;20218;-48
2023/07/13 09:47:29;;;;;;;5.70;2.38;;;;;;;19.33;100.00;101088.66;4948133;28;20267;-49
2023/07/13 09:50:00;;;;;;;5.70;2.20;;;;;;;19.88;100.00;101081.13;4941546;28;20233;-49
2023/07/13 09:52:27;;;;;;;6.47;2.60;;;;;;;20.02;100.00;101074.66;4941034;28;20690;-47
2023/07/13 09:54:59;;;;;;;4.78;1.98;;;;;;;20.23;100.00;101073.06;4951065;28;20282;-47
2023/07/13 09:57:27;;;;;;;5.38;2.30;;;;;;;20.23;100.00;101073.06;4952932;28;20181;-47
2023/07/13 09:59:56;;;;;;;4.00;2.20;;;;;;;20.52;100.00;101064.53;4948527;28;20178;-46
2023/07/13 10:02:25;;;;;;;7.63;2.80;;;;;;;19.75;100.00;101071.13;4936180;28;20210;-49
2023/07/13 10:05:22;;;;;;;7.60;2.42;;;;;;;20.43;100.00;101068.81;4951646;28;20225;-47
2023/07/13 10:07:47;;;;;;;5.78;2.28;;;;;;;20.46;100.00;101067.72;4948773;28;20191;-47
2023/07/13 10:10:16;;;;;;;3.83;2.15;;;;;;;20.75;100.00;101047.31;4944370;28;20665;-47
2023/07/13 10:12:41;;;;;;;5.63;2.28;;;;;;;20.47;100.00;101048.56;4937476;28;20652;-46
2023/07/13 10:15:15;;;;;;;6.32;2.30;;;;;;;20.08;100.00;101069.63;4944971;28;20335;-46
2023/07/13 10:17:41;;;;;;;6.88;2.40;;;;;;;19.84;100.00;101069.59;4951053;28;20530;-48
2023/07/13 10:20:12;;;;;;;6.53;2.15;;;;;;;18.91;100.00;101066.22;4937966;28;20234;-46
2023/07/13 10:22:42;;;;;;;8.38;2.05;;;;;;;18.58;100.00;101080.25;4941216;28;20346;-49
2023/07/13 10:25:32;;;;;;;7.65;2.55;;;;;;;18.52;100.00;101103.25;4954571;28;20267;-47
2023/07/13 10:28:31;;;;;;;7.53;2.20;;;;;;;18.55;100.00;101096.75;4933794;28;20195;-46
2023/07/13 10:31:00;;;;;;;5.60;2.22;;;;;;;19.06;100.00;101084.16;4942051;28;20290;-48
2023/07/13 10:33:26;;;;;;;7.30;2.22;;;;;;;19.06;100.00;101075.16;4949916;28;20564;-47
2023/07/13 10:36:01;;;;;;;5.88;2.10;;;;;;;19.50;98.93;101069.31;4948194;28;20418;-48
2023/07/13 10:38:28;;;;;;;3.17;1.58;;;;;;;19.96;96.87;101060.53;4936953;28;20183;-48
2023/07/13 10:41:01;;;;;;;8.07;1.85;;;;;;;20.10;94.26;101059.50;4941718;28;20213;-49
2023/07/13 10:43:33;;;;;;;3.15;1.40;;;;;;;20.12;92.13;101057.53;4950277;28;20688;-48
2023/07/13 10:46:00;;;;;;;3.10;1.23;;;;;;;20.03;85.29;101044.63;4946285;28;20201;-48
2023/07/13 10:48:26;;;;;;;2.75;1.00;;;;;;;19.93;81.01;101038.97;4947387;28;20236;-47
2023/07/13 10:50:55;;;;;;;4.72;1.10;;;;;;;19.83;77.60;101027.06;4951804;28;20201;-48
2023/07/13 10:53:27;;;;;;;4.60;1.00;;;;;;;20.01;75.44;101038.44;4954795;28;20187;-48
2023/07/13 10:55:53;;;;;;;3.67;1.10;;;;;;;20.17;74.22;101025.41;4946346;28;20248;-49
2023/07/13 10:58:27;;;;;;;4.28;1.10;;;;;;;20.08;73.46;101039.69;4939499;28;20530;-50
2023/07/13 11:01:15;;;;;;;3.70;1.17;;;;;;;20.04;72.77;101034.59;4943827;28;20573;-48
2023/07/13 11:03:43;;;;;;;4.32;1.10;;;;;;;20.03;73.08;101033.75;4951402;28;20197;-47
2023/07/13 11:06:21;;;;;;;3.65;0.93;;;;;;;20.74;73.16;101036.53;4949474;28;20670;-48
2023/07/13 11:08:47;;;;;;;3.50;1.00;;;;;;;20.62;70.59;101021.16;4955809;28;20859;-48
2023/07/13 11:11:38;;;;;;;0.68;0.65;;;;;;;20.78;68.01;101008.09;4957586;28;20244;-49
2023/07/13 11:14:24;;;;;;;3.13;0.98;;;;;;;20.57;68.33;101025.13;4951389;28;20294;-49
2023/07/13 11:16:50;;;;;;;2.78;0.90;;;;;;;20.48;67.39;101023.06;4950477;28;20175;-48
2023/07/13 11:19:15;;;;;;;3.40;0.88;;;;;;;20.66;67.70;101020.81;4951353;28;20667;-47